Time;durP1;ratioP1;P1;durP2;ratioP2;P2;SDS_P1;SDS_P2;PMS_P1;PMS_P2;Temp;Humidity;BMP_temperature;BMP_pressure;BME280_temperature;BME280_humidity;BME280_pressure;Samples;Min_cycle;Max_cycle;Signal;HPM_P1;HPM_P2
2021/12/28 00:00:09;;;;;;;51.90;11.00;;;10.30;92.50;;;;;;5031224;28;20261;-87
2021/12/28 00:02:36;;;;;;;36.00;8.65;;;10.40;92.50;;;;;;5047240;28;20025;-88
2021/12/28 00:05:03;;;;;;;36.03;8.43;;;10.40;92.40;;;;;;5038012;28;20099;-86
2021/12/28 00:07:30;;;;;;;41.63;10.68;;;10.40;92.50;;;;;;5035695;28;20109;-89
2021/12/28 00:09:56;;;;;;;33.00;9.55;;;10.40;92.50;;;;;;5034167;28;20029;-89
2021/12/28 00:12:22;;;;;;;37.63;9.13;;;10.40;92.50;;;;;;5039635;28;20041;-90
2021/12/28 00:15:04;;;;;;;32.08;9.80;;;10.30;92.50;;;;;;5037610;28;20116;-87
2021/12/28 00:20:16;;;;;;;34.60;7.88;;;10.40;92.60;;;;;;5026665;28;20484;-88
2021/12/28 00:22:42;;;;;;;31.55;7.93;;;10.40;92.50;;;;;;5031063;28;20026;-89
2021/12/28 00:25:10;;;;;;;27.65;7.15;;;10.40;92.50;;;;;;5044027;28;20111;-89
2021/12/28 00:27:36;;;;;;;36.97;8.70;;;10.40;92.60;;;;;;5036505;28;20026;-88
2021/12/28 00:30:03;;;;;;;32.00;7.10;;;10.40;92.50;;;;;;5035113;28;20022;-88
2021/12/28 00:32:28;;;;;;;32.60;7.05;;;10.40;92.60;;;;;;5046853;28;20038;-87
2021/12/28 00:34:57;;;;;;;32.05;7.30;;;10.40;92.70;;;;;;5040679;28;20556;-88
2021/12/28 00:37:23;;;;;;;30.70;7.10;;;10.50;92.80;;;;;;5060637;28;20018;-89
2021/12/28 00:39:49;;;;;;;39.15;8.48;;;10.50;92.80;;;;;;5043222;28;20056;-89
2021/12/28 00:42:14;;;;;;;37.88;7.75;;;10.40;92.90;;;;;;5043314;28;20029;-88
2021/12/28 00:44:40;;;;;;;41.95;8.65;;;10.50;93.00;;;;;;5033655;28;20049;-88
2021/12/28 00:47:06;;;;;;;36.40;7.80;;;10.50;93.00;;;;;;5023475;28;20029;-88
2021/12/28 00:49:32;;;;;;;34.85;9.20;;;10.50;93.00;;;;;;5049667;28;20029;-88
2021/12/28 00:51:57;;;;;;;36.05;8.52;;;10.50;93.00;;;;;;5050390;28;20076;-88
2021/12/28 00:54:23;;;;;;;38.47;9.05;;;10.60;93.10;;;;;;5046090;28;20028;-89
2021/12/28 00:56:49;;;;;;;39.10;9.40;;;10.50;93.20;;;;;;5018624;28;20080;-89
2021/12/28 00:59:14;;;;;;;39.95;8.98;;;10.50;93.30;;;;;;5042885;28;20530;-89
2021/12/28 01:01:40;;;;;;;35.40;8.48;;;10.50;93.40;;;;;;5047977;28;20037;-89
2021/12/28 01:04:06;;;;;;;39.30;8.57;;;10.50;93.40;;;;;;5044673;28;20021;-89
2021/12/28 01:06:31;;;;;;;41.30;8.25;;;10.40;93.50;;;;;;5018161;28;20044;-89
2021/12/28 01:08:57;;;;;;;38.22;8.02;;;10.40;93.60;;;;;;5054439;28;20029;-89
2021/12/28 01:11:24;;;;;;;36.25;7.68;;;10.40;93.60;;;;;;5046493;28;20034;-89
2021/12/28 01:13:50;;;;;;;50.70;9.88;;;10.40;93.60;;;;;;5034851;28;20103;-89
2021/12/28 01:16:16;;;;;;;48.65;9.25;;;10.40;93.60;;;;;;5025392;28;20454;-89
2021/12/28 01:18:42;;;;;;;39.92;8.60;;;10.40;93.50;;;;;;5028260;28;20036;-88
2021/12/28 01:21:09;;;;;;;38.20;8.98;;;10.40;93.60;;;;;;5036175;28;20029;-88
2021/12/28 01:23:35;;;;;;;35.67;8.75;;;10.40;93.50;;;;;;5053622;28;20029;-88
2021/12/28 01:26:02;;;;;;;37.92;7.40;;;10.40;93.40;;;;;;5032016;28;20037;-88
2021/12/28 01:28:27;;;;;;;32.88;8.23;;;10.50;93.40;;;;;;5019420;28;20025;-89
2021/12/28 01:30:53;;;;;;;37.85;8.40;;;10.50;93.40;;;;;;5035091;28;20040;-88
2021/12/28 01:33:20;;;;;;;33.75;7.90;;;10.50;93.30;;;;;;5047862;28;20044;-87
2021/12/28 01:35:45;;;;;;;39.85;8.73;;;10.50;93.20;;;;;;5064292;28;20014;-88
2021/12/28 01:38:11;;;;;;;43.05;7.70;;;10.50;93.20;;;;;;5062907;28;20049;-88
2021/12/28 01:40:40;;;;;;;31.10;6.63;;;10.50;93.30;;;;;;5035763;28;20021;-89
2021/12/28 01:43:14;;;;;;;29.80;7.65;;;10.50;93.30;;;;;;5053108;28;20029;-87
2021/12/28 01:45:55;;;;;;;34.88;8.38;;;10.50;93.30;;;;;;5051740;28;20058;-88
2021/12/28 01:48:41;;;;;;;37.85;9.25;;;10.50;93.40;;;;;;5030316;28;20022;-88
2021/12/28 01:51:13;;;;;;;30.60;8.15;;;10.50;93.30;;;;;;5028385;28;20029;-88
2021/12/28 01:53:40;;;;;;;34.67;8.80;;;10.50;93.30;;;;;;5044347;28;20048;-87
2021/12/28 01:56:12;;;;;;;29.30;8.38;;;10.50;93.40;;;;;;5059772;28;20056;-89
2021/12/28 01:58:38;;;;;;;30.45;8.02;;;10.50;93.40;;;;;;5025405;28;20134;-89
2021/12/28 02:01:05;;;;;;;39.88;10.27;;;10.50;93.60;;;;;;5035587;28;20060;-88
2021/12/28 02:03:32;;;;;;;33.28;8.95;;;10.50;93.60;;;;;;5041810;28;20022;-89
2021/12/28 02:05:58;;;;;;;29.92;7.50;;;10.50;93.60;;;;;;5031152;28;20087;-89
2021/12/28 02:08:24;;;;;;;33.10;7.95;;;10.40;93.70;;;;;;5027856;28;20021;-89
2021/12/28 02:10:53;;;;;;;32.75;8.35;;;10.50;93.70;;;;;;5052990;28;20025;-89
2021/12/28 02:13:20;;;;;;;25.42;7.18;;;10.50;93.70;;;;;;5036014;28;20029;-88
2021/12/28 02:15:46;;;;;;;24.92;7.97;;;10.50;93.70;;;;;;5034568;28;20064;-89
2021/12/28 02:18:14;;;;;;;23.98;7.05;;;10.50;93.70;;;;;;5049688;28;20021;-88
2021/12/28 02:20:42;;;;;;;24.40;6.55;;;10.50;93.60;;;;;;5034416;28;20025;-90
2021/12/28 02:23:08;;;;;;;30.42;7.40;;;10.50;93.60;;;;;;5048166;28;20449;-89
2021/12/28 02:25:35;;;;;;;27.88;6.90;;;10.50;93.60;;;;;;5056597;28;20049;-89
2021/12/28 02:28:03;;;;;;;23.67;6.82;;;10.50;93.70;;;;;;5052983;28;20021;-88
2021/12/28 02:30:29;;;;;;;25.90;5.93;;;10.50;93.70;;;;;;5037368;28;20361;-89
2021/12/28 02:32:54;;;;;;;29.83;6.72;;;10.50;93.70;;;;;;5047647;28;20013;-89
2021/12/28 02:35:23;;;;;;;27.58;7.22;;;10.50;93.80;;;;;;5065131;28;20026;-88
2021/12/28 02:37:50;;;;;;;33.45;7.72;;;10.50;93.90;;;;;;5071887;28;20116;-89
2021/12/28 02:40:19;;;;;;;26.13;7.43;;;10.40;94.00;;;;;;5071021;28;20092;-86
2021/12/28 02:42:46;;;;;;;21.42;6.30;;;10.40;94.00;;;;;;5066593;28;20024;-87
2021/12/28 02:45:31;;;;;;;31.48;7.47;;;10.40;94.00;;;;;;5057586;28;20067;-89
2021/12/28 02:47:57;;;;;;;31.50;7.63;;;10.40;94.00;;;;;;5065282;28;20025;-88
2021/12/28 02:50:29;;;;;;;30.63;8.13;;;10.40;94.00;;;;;;5056457;28;20021;-88
2021/12/28 02:52:55;;;;;;;27.05;6.82;;;10.40;94.10;;;;;;5038082;28;20022;-87
2021/12/28 02:55:23;;;;;;;26.88;7.45;;;10.30;94.10;;;;;;5036081;28;20079;-89
2021/12/28 02:57:52;;;;;;;26.00;7.18;;;10.40;94.10;;;;;;5030719;28;20033;-87
2021/12/28 03:00:42;;;;;;;27.38;6.57;;;10.40;94.10;;;;;;5040510;28;20026;-88
2021/12/28 03:03:13;;;;;;;28.80;7.10;;;10.40;94.00;;;;;;5034483;28;20042;-88
2021/12/28 03:05:41;;;;;;;24.58;6.72;;;10.40;94.10;;;;;;5038427;28;20049;-87
2021/12/28 03:08:07;;;;;;;27.83;6.28;;;10.40;94.10;;;;;;5037915;28;20049;-87
2021/12/28 03:10:34;;;;;;;22.65;8.45;;;10.40;94.10;;;;;;5022144;28;20330;-87
2021/12/28 03:13:00;;;;;;;31.13;8.25;;;10.40;94.20;;;;;;5042681;28;20104;-88
2021/12/28 03:15:25;;;;;;;23.08;5.75;;;10.40;94.20;;;;;;5034826;28;20538;-88
2021/12/28 03:17:51;;;;;;;19.90;5.57;;;10.30;94.10;;;;;;5010721;28;20026;-87
2021/12/28 03:20:18;;;;;;;26.75;6.93;;;10.30;94.20;;;;;;5035387;28;20026;-87
2021/12/28 03:22:44;;;;;;;29.33;6.70;;;10.30;94.20;;;;;;5040954;28;20025;-87
2021/12/28 03:25:11;;;;;;;31.25;7.93;;;10.30;94.30;;;;;;5033695;28;20041;-86
2021/12/28 03:27:37;;;;;;;22.98;6.50;;;10.30;94.40;;;;;;5032186;28;20112;-87
2021/12/28 03:30:06;;;;;;;20.35;5.78;;;10.30;94.40;;;;;;5041266;28;20100;-85
2021/12/28 03:32:32;;;;;;;22.90;5.93;;;10.30;94.40;;;;;;5027680;28;20025;-86
2021/12/28 03:34:57;;;;;;;18.02;5.70;;;10.30;94.40;;;;;;5044800;28;20113;-86
2021/12/28 03:37:23;;;;;;;20.67;6.05;;;10.30;94.50;;;;;;5032783;28;20445;-88
2021/12/28 03:39:49;;;;;;;23.33;6.25;;;10.30;94.40;;;;;;5029719;28;20060;-88
2021/12/28 03:42:15;;;;;;;20.90;6.53;;;10.30;94.50;;;;;;5038274;28;20048;-88
2021/12/28 03:44:41;;;;;;;27.67;7.63;;;10.30;94.50;;;;;;5039712;28;20500;-88
2021/12/28 03:47:07;;;;;;;21.50;7.07;;;10.20;94.50;;;;;;5030375;28;20453;-87
2021/12/28 03:49:33;;;;;;;26.70;7.25;;;10.20;94.60;;;;;;5034665;28;20032;-88
2021/12/28 03:52:00;;;;;;;22.38;7.20;;;10.30;94.60;;;;;;5033600;28;20038;-86
2021/12/28 03:54:25;;;;;;;25.35;8.15;;;10.20;94.60;;;;;;5021351;28;20030;-87
2021/12/28 03:56:51;;;;;;;25.65;7.35;;;10.30;94.60;;;;;;5015936;28;20080;-86
2021/12/28 03:59:17;;;;;;;22.67;7.63;;;10.30;94.60;;;;;;5006020;28;20026;-88
2021/12/28 04:01:43;;;;;;;22.45;7.57;;;10.20;94.60;;;;;;5017879;28;20053;-88
2021/12/28 04:04:08;;;;;;;23.45;6.97;;;10.30;94.60;;;;;;5037826;28;20034;-88
2021/12/28 04:06:35;;;;;;;24.15;7.00;;;10.30;94.50;;;;;;5028934;28;20036;-87
2021/12/28 04:09:03;;;;;;;23.52;7.50;;;10.30;94.50;;;;;;5044541;28;20045;-87
2021/12/28 04:11:30;;;;;;;21.92;6.80;;;10.30;94.50;;;;;;5043011;28;20069;-88
2021/12/28 04:14:00;;;;;;;20.85;7.15;;;10.30;94.50;;;;;;5038423;28;20041;-89
2021/12/28 04:16:27;;;;;;;18.35;5.97;;;10.30;94.50;;;;;;5043270;28;20112;-88
2021/12/28 04:18:53;;;;;;;16.33;6.22;;;10.30;94.50;;;;;;5029237;28;20453;-88
2021/12/28 04:21:19;;;;;;;19.88;7.40;;;10.30;94.50;;;;;;5039254;28;20072;-89
2021/12/28 04:23:46;;;;;;;19.00;7.00;;;10.30;94.50;;;;;;5039739;28;20109;-89
2021/12/28 04:26:12;;;;;;;17.15;5.85;;;10.40;94.50;;;;;;5044791;28;20492;-88
2021/12/28 04:28:38;;;;;;;17.30;6.03;;;10.30;94.50;;;;;;5032300;28;20095;-88
2021/12/28 04:31:04;;;;;;;19.02;6.43;;;10.30;94.50;;;;;;5038565;28;20034;-88
2021/12/28 04:33:30;;;;;;;17.48;6.50;;;10.40;94.50;;;;;;5040920;28;20050;-88
2021/12/28 04:35:56;;;;;;;20.63;6.40;;;10.30;94.50;;;;;;5036051;28;20059;-88
2021/12/28 04:38:22;;;;;;;19.45;6.60;;;10.30;94.60;;;;;;5043796;28;20080;-87
2021/12/28 04:40:47;;;;;;;17.02;5.50;;;10.30;94.60;;;;;;5042234;28;20033;-88
2021/12/28 04:43:15;;;;;;;18.40;5.82;;;10.30;94.70;;;;;;5041428;28;20069;-88
2021/12/28 04:45:41;;;;;;;19.58;5.90;;;10.30;94.70;;;;;;5056937;28;20026;-88
2021/12/28 04:48:07;;;;;;;16.40;6.15;;;10.30;94.70;;;;;;5036981;28;20468;-88
2021/12/28 04:50:37;;;;;;;16.92;5.95;;;10.30;94.60;;;;;;5038460;28;20112;-88
2021/12/28 04:53:09;;;;;;;14.80;6.50;;;10.30;94.60;;;;;;5056513;28;20032;-89
2021/12/28 04:55:35;;;;;;;17.73;6.20;;;10.30;94.70;;;;;;5055154;28;20029;-87
2021/12/28 04:58:01;;;;;;;16.08;5.30;;;10.30;94.70;;;;;;5038817;28;20037;-88
2021/12/28 05:00:27;;;;;;;18.10;6.43;;;10.20;94.70;;;;;;5040840;28;20028;-88
2021/12/28 05:02:52;;;;;;;17.17;6.20;;;10.30;94.80;;;;;;5035895;28;20457;-88
2021/12/28 05:05:18;;;;;;;18.67;6.30;;;10.30;94.80;;;;;;5046255;28;20041;-89
2021/12/28 05:07:44;;;;;;;15.48;5.97;;;10.30;94.80;;;;;;5034746;28;20033;-88
2021/12/28 05:10:10;;;;;;;15.57;6.30;;;10.30;94.80;;;;;;5035269;28;20033;-89
2021/12/28 05:12:36;;;;;;;15.55;7.00;;;10.30;94.80;;;;;;5036340;28;20104;-88
2021/12/28 05:15:02;;;;;;;15.60;6.20;;;10.30;94.80;;;;;;5038713;28;20235;-87
2021/12/28 05:17:28;;;;;;;13.50;6.00;;;10.30;94.70;;;;;;5050804;28;20103;-88
2021/12/28 05:19:55;;;;;;;14.23;5.45;;;10.30;94.80;;;;;;5042060;28;20456;-88
2021/12/28 05:22:21;;;;;;;14.07;5.43;;;10.30;94.70;;;;;;5043704;28;20211;-87
2021/12/28 05:24:46;;;;;;;12.93;5.55;;;10.40;94.70;;;;;;5069211;28;20054;-88
2021/12/28 05:27:12;;;;;;;15.40;6.13;;;10.30;94.70;;;;;;5055167;28;20116;-89
2021/12/28 05:29:38;;;;;;;13.80;6.22;;;10.40;94.70;;;;;;5060552;28;20025;-89
2021/12/28 05:32:04;;;;;;;12.60;5.53;;;10.40;94.70;;;;;;5046964;28;20373;-87
2021/12/28 05:34:29;;;;;;;14.40;5.70;;;10.30;94.60;;;;;;5030962;28;20037;-88
2021/12/28 05:36:55;;;;;;;12.38;6.30;;;10.40;94.70;;;;;;5041543;28;20039;-87
2021/12/28 05:39:21;;;;;;;11.52;6.32;;;10.40;94.60;;;;;;5057145;28;20025;-89
2021/12/28 05:41:47;;;;;;;18.02;6.90;;;10.40;94.70;;;;;;5054898;28;20021;-89
2021/12/28 05:44:13;;;;;;;15.55;6.53;;;10.40;94.70;;;;;;5062529;28;20098;-89
2021/12/28 05:46:38;;;;;;;12.32;6.50;;;10.40;94.60;;;;;;5055688;28;20040;-88
2021/12/28 05:49:04;;;;;;;13.15;7.13;;;10.40;94.70;;;;;;5044410;28;20025;-89
2021/12/28 05:51:30;;;;;;;15.25;7.00;;;10.40;94.70;;;;;;5039789;28;20464;-88
2021/12/28 05:53:55;;;;;;;11.90;6.00;;;10.40;94.70;;;;;;5030936;28;20037;-87
2021/12/28 05:56:21;;;;;;;14.07;6.40;;;10.30;94.70;;;;;;5043905;28;20025;-87
2021/12/28 05:58:47;;;;;;;11.00;6.47;;;10.40;94.70;;;;;;5045051;28;20032;-88
2021/12/28 06:01:13;;;;;;;12.35;6.43;;;10.30;94.70;;;;;;5034914;28;20024;-88
2021/12/28 06:03:38;;;;;;;13.25;6.38;;;10.40;94.80;;;;;;5033502;28;20025;-88
2021/12/28 06:06:04;;;;;;;15.00;7.22;;;10.40;94.80;;;;;;5041240;28;20091;-89
2021/12/28 06:08:30;;;;;;;13.15;6.60;;;10.30;94.80;;;;;;5053251;28;20025;-89
2021/12/28 06:10:55;;;;;;;12.75;6.45;;;10.40;94.80;;;;;;5065152;28;20025;-88
2021/12/28 06:13:23;;;;;;;13.13;6.20;;;10.40;94.80;;;;;;5047031;28;20091;-89
2021/12/28 06:15:49;;;;;;;14.70;6.63;;;10.40;94.80;;;;;;5051241;28;20117;-89
2021/12/28 06:18:15;;;;;;;13.90;6.13;;;10.40;94.80;;;;;;5074995;28;20029;-89
2021/12/28 06:20:40;;;;;;;14.05;7.00;;;10.40;94.80;;;;;;5066933;28;20107;-89
2021/12/28 06:23:07;;;;;;;11.57;6.82;;;10.40;94.80;;;;;;5054163;28;20106;-87
2021/12/28 06:25:33;;;;;;;11.18;6.30;;;10.40;94.90;;;;;;5060311;28;20033;-88
2021/12/28 06:27:59;;;;;;;12.45;6.55;;;10.40;94.90;;;;;;5029023;28;20057;-88
2021/12/28 06:30:25;;;;;;;10.43;6.53;;;10.40;94.80;;;;;;5034755;28;20121;-87
2021/12/28 06:32:51;;;;;;;12.55;6.45;;;10.40;94.90;;;;;;5043036;28;20044;-87
2021/12/28 06:35:16;;;;;;;11.50;6.07;;;10.40;94.90;;;;;;5035101;28;20025;-88
2021/12/28 06:37:43;;;;;;;12.75;6.80;;;10.50;94.80;;;;;;5038836;28;20029;-88
2021/12/28 06:40:11;;;;;;;12.43;6.35;;;10.40;94.80;;;;;;5039189;28;20056;-87
2021/12/28 06:42:37;;;;;;;11.73;6.32;;;10.40;94.80;;;;;;5056149;28;20022;-89
2021/12/28 06:45:04;;;;;;;11.45;6.85;;;10.40;94.80;;;;;;5038583;28;20497;-88
2021/12/28 06:47:29;;;;;;;10.40;5.95;;;10.50;94.80;;;;;;5046190;28;20033;-89
2021/12/28 06:49:55;;;;;;;13.25;7.22;;;10.50;94.80;;;;;;5041331;28;20369;-89
2021/12/28 06:52:21;;;;;;;11.43;6.60;;;10.40;94.80;;;;;;5045729;28;20064;-88
2021/12/28 06:54:46;;;;;;;10.00;6.57;;;10.50;94.80;;;;;;5049393;28;20133;-89
2021/12/28 06:57:12;;;;;;;12.70;7.05;;;10.50;94.80;;;;;;5063788;28;20422;-89
2021/12/28 06:59:45;;;;;;;12.20;7.13;;;10.40;94.90;;;;;;5031289;28;20026;-90
2021/12/28 07:02:16;;;;;;;16.77;7.38;;;10.50;94.90;;;;;;5021926;28;20035;-88
2021/12/28 07:04:42;;;;;;;12.93;6.70;;;10.50;94.90;;;;;;5031405;28;20563;-88
2021/12/28 07:07:09;;;;;;;11.82;6.47;;;10.50;94.90;;;;;;5033285;28;20033;-88
2021/12/28 07:09:35;;;;;;;10.23;5.70;;;10.50;94.90;;;;;;5026962;28;20436;-88
2021/12/28 07:12:02;;;;;;;9.85;5.32;;;10.50;94.80;;;;;;5017187;28;20022;-87
2021/12/28 07:14:28;;;;;;;9.07;5.40;;;10.50;94.90;;;;;;5026157;28;20026;-88
2021/12/28 07:16:55;;;;;;;7.75;4.72;;;10.50;94.80;;;;;;5039304;28;20036;-88
2021/12/28 07:19:21;;;;;;;10.82;5.13;;;10.50;94.80;;;;;;5026994;28;20120;-87
2021/12/28 07:21:46;;;;;;;9.18;5.32;;;10.60;94.70;;;;;;5033782;28;20055;-88
2021/12/28 07:24:13;;;;;;;8.98;4.75;;;10.60;94.70;;;;;;5030126;28;20032;-88
2021/12/28 07:26:39;;;;;;;8.73;5.32;;;10.60;94.60;;;;;;5033656;28;20048;-86
2021/12/28 07:29:05;;;;;;;10.13;4.95;;;10.60;94.60;;;;;;5042835;28;20059;-87
2021/12/28 07:31:31;;;;;;;6.70;4.38;;;10.60;94.60;;;;;;5039947;28;20064;-87
2021/12/28 07:33:57;;;;;;;8.45;4.82;;;10.60;94.70;;;;;;5035275;28;20040;-88
2021/12/28 07:36:23;;;;;;;9.18;4.80;;;10.60;94.60;;;;;;5036042;28;20041;-87
2021/12/28 07:38:49;;;;;;;9.77;4.78;;;10.60;94.60;;;;;;5038921;28;20033;-87
2021/12/28 07:41:15;;;;;;;9.95;5.90;;;10.60;94.60;;;;;;5067998;28;20032;-88
2021/12/28 07:43:41;;;;;;;8.10;5.05;;;10.60;94.70;;;;;;5037619;28;20025;-88
2021/12/28 07:46:07;;;;;;;10.63;5.55;;;10.60;94.60;;;;;;5020677;28;20030;-89
2021/12/28 07:48:33;;;;;;;9.50;4.70;;;10.60;94.60;;;;;;5044227;28;20107;-90
2021/12/28 07:50:58;;;;;;;8.82;4.60;;;10.60;94.60;;;;;;5048650;28;20124;-89
2021/12/28 07:53:24;;;;;;;8.13;4.57;;;10.60;94.60;;;;;;5050435;28;20026;-87
2021/12/28 07:55:50;;;;;;;11.27;4.13;;;10.60;94.50;;;;;;5026901;28;20029;-88
2021/12/28 07:58:15;;;;;;;8.73;4.03;;;10.60;94.50;;;;;;5040924;28;20026;-88
2021/12/28 08:00:41;;;;;;;8.75;4.00;;;10.60;94.50;;;;;;5032467;28;20036;-89
2021/12/28 08:03:07;;;;;;;13.93;4.55;;;10.60;94.40;;;;;;5020694;28;20022;-89
2021/12/28 08:05:34;;;;;;;7.88;3.20;;;10.60;94.40;;;;;;5032510;28;20093;-90
2021/12/28 08:08:00;;;;;;;11.02;4.00;;;10.60;94.30;;;;;;5029171;28;20389;-89
2021/12/28 08:10:26;;;;;;;9.10;3.15;;;10.70;94.30;;;;;;5030552;28;20022;-89
2021/12/28 08:12:54;;;;;;;9.07;3.00;;;10.60;94.20;;;;;;5029874;28;20030;-89
2021/12/28 08:15:21;;;;;;;7.80;3.05;;;10.70;94.20;;;;;;5020218;28;20465;-87
2021/12/28 08:17:47;;;;;;;10.85;2.45;;;10.70;94.20;;;;;;5033247;28;20481;-87
2021/12/28 08:20:15;;;;;;;9.77;2.60;;;10.80;94.20;;;;;;5028911;28;20540;-87
2021/12/28 08:22:41;;;;;;;11.02;2.92;;;10.70;94.10;;;;;;5022338;28;20081;-88
2021/12/28 08:25:10;;;;;;;10.23;3.28;;;10.70;94.10;;;;;;5042473;28;20037;-89
2021/12/28 08:27:36;;;;;;;20.42;4.78;;;10.70;94.10;;;;;;5032572;28;20483;-87
2021/12/28 08:30:02;;;;;;;11.80;2.63;;;10.80;94.10;;;;;;5022603;28;20113;-86
2021/12/28 08:32:28;;;;;;;10.80;2.85;;;10.70;94.00;;;;;;5034326;28;20045;-87
2021/12/28 08:34:54;;;;;;;11.02;3.00;;;10.80;94.00;;;;;;5035631;28;20140;-87
2021/12/28 08:37:19;;;;;;;12.23;2.70;;;10.80;94.00;;;;;;5034056;28;20052;-86
2021/12/28 08:39:45;;;;;;;15.43;2.78;;;10.80;93.90;;;;;;5029594;28;20030;-88
2021/12/28 08:42:11;;;;;;;12.75;3.08;;;10.80;93.80;;;;;;5025925;28;20033;-88
2021/12/28 08:44:37;;;;;;;15.40;3.17;;;10.80;93.50;;;;;;5033974;28;20124;-88
2021/12/28 08:47:05;;;;;;;15.23;2.72;;;10.80;93.30;;;;;;5028204;28;20120;-91
2021/12/28 08:49:30;;;;;;;14.98;2.92;;;10.80;93.30;;;;;;5028674;28;20520;-88
2021/12/28 08:51:56;;;;;;;15.10;2.88;;;10.80;93.10;;;;;;5028148;28;20049;-89
2021/12/28 08:54:22;;;;;;;17.58;3.80;;;10.80;93.00;;;;;;5033127;28;20120;-89
2021/12/28 08:56:50;;;;;;;17.05;4.75;;;10.80;92.70;;;;;;5030735;28;20042;-88
2021/12/28 08:59:16;;;;;;;13.93;3.95;;;10.90;92.50;;;;;;5043298;28;20053;-88
2021/12/28 09:01:42;;;;;;;16.58;4.43;;;11.00;92.30;;;;;;5048909;28;20038;-88
2021/12/28 09:04:08;;;;;;;12.93;4.20;;;11.00;92.20;;;;;;5029954;28;20109;-88
2021/12/28 09:06:33;;;;;;;19.05;3.17;;;11.00;92.20;;;;;;5042423;28;20446;-85
2021/12/28 09:08:59;;;;;;;16.67;4.75;;;11.00;92.40;;;;;;5032690;28;20037;-81
2021/12/28 09:11:25;;;;;;;18.60;4.32;;;11.00;92.40;;;;;;5019480;28;20033;-83
2021/12/28 09:13:51;;;;;;;19.17;4.05;;;11.00;92.50;;;;;;5023625;28;20369;-82
2021/12/28 09:16:17;;;;;;;18.98;4.05;;;11.00;92.50;;;;;;5019604;28;20049;-83
2021/12/28 09:18:43;;;;;;;17.52;3.70;;;11.00;92.60;;;;;;5017350;28;20080;-80
2021/12/28 09:21:09;;;;;;;21.73;3.88;;;11.00;92.70;;;;;;5020139;28;20048;-81
2021/12/28 09:23:35;;;;;;;15.45;3.72;;;11.00;92.80;;;;;;5028263;28;20022;-81
2021/12/28 09:26:00;;;;;;;10.32;2.85;;;11.00;93.00;;;;;;5018671;28;20465;-81
2021/12/28 09:28:26;;;;;;;14.73;4.47;;;10.90;93.10;;;;;;5018013;28;20057;-81
2021/12/28 09:30:52;;;;;;;13.38;3.35;;;11.00;93.30;;;;;;5034199;28;20076;-80
2021/12/28 09:33:19;;;;;;;11.18;3.33;;;11.00;93.40;;;;;;5022601;28;20068;-83
2021/12/28 09:35:45;;;;;;;15.48;4.07;;;11.00;93.40;;;;;;5008694;28;20084;-82
2021/12/28 09:38:11;;;;;;;9.02;2.60;;;11.00;93.50;;;;;;5020096;28;20032;-81
2021/12/28 09:40:37;;;;;;;8.98;2.42;;;11.00;93.60;;;;;;5009887;28;20034;-81
2021/12/28 09:43:08;;;;;;;10.45;2.67;;;11.00;93.80;;;;;;4991930;28;20038;-81
2021/12/28 09:45:34;;;;;;;10.80;2.63;;;10.80;93.70;;;;;;4993472;28;20058;-83
2021/12/28 09:48:01;;;;;;;12.50;2.38;;;10.90;93.50;;;;;;5007141;28;20115;-81
2021/12/28 09:50:27;;;;;;;10.30;2.92;;;10.90;93.40;;;;;;5018259;28;20048;-82
2021/12/28 09:52:53;;;;;;;20.40;3.70;;;10.80;93.00;;;;;;5016175;28;20037;-82
2021/12/28 09:55:21;;;;;;;19.52;4.18;;;10.80;92.60;;;;;;5012745;28;20037;-84
2021/12/28 09:57:48;;;;;;;18.13;3.75;;;10.90;92.00;;;;;;5014630;28;20458;-85
2021/12/28 10:00:17;;;;;;;27.77;5.25;;;10.80;91.70;;;;;;5000875;28;20103;-82
2021/12/28 10:02:43;;;;;;;18.10;4.22;;;10.90;91.60;;;;;;5009421;28;20487;-85
2021/12/28 10:05:12;;;;;;;27.40;5.72;;;10.80;91.60;;;;;;5011500;28;20038;-86
2021/12/28 10:07:44;;;;;;;27.70;6.30;;;10.90;91.10;;;;;;5004236;28;20334;-83
2021/12/28 10:10:10;;;;;;;33.92;6.18;;;10.90;90.60;;;;;;5009520;28;20111;-82
2021/12/28 10:12:40;;;;;;;32.65;5.97;;;11.00;89.60;;;;;;5014825;28;20026;-82
2021/12/28 10:15:09;;;;;;;32.67;6.78;;;11.00;88.90;;;;;;5020327;28;20117;-83
2021/12/28 10:17:36;;;;;;;33.80;7.72;;;11.10;88.50;;;;;;5016159;28;20041;-84
2021/12/28 10:20:12;;;;;;;36.90;7.35;;;11.10;87.30;;;;;;5041684;28;20052;-83
2021/12/28 10:22:48;;;;;;;36.75;7.60;;;11.20;86.70;;;;;;5042414;28;20256;-83
2021/12/28 10:25:32;;;;;;;35.13;7.72;;;11.40;86.10;;;;;;5018477;28;20041;-86
2021/12/28 10:28:02;;;;;;;34.42;7.88;;;11.60;83.90;;;;;;5040439;28;20111;-84
2021/12/28 10:30:34;;;;;;;42.10;8.25;;;11.70;84.20;;;;;;5033194;28;20032;-83
2021/12/28 10:33:03;;;;;;;45.13;8.50;;;11.70;82.90;;;;;;5022362;28;20040;-84
2021/12/28 10:35:32;;;;;;;34.45;8.80;;;11.70;82.80;;;;;;5035511;28;20171;-85
2021/12/28 10:38:00;;;;;;;39.38;8.40;;;11.60;83.00;;;;;;5067834;28;20026;-84
2021/12/28 10:40:36;;;;;;;41.60;8.90;;;11.60;82.10;;;;;;5081279;28;20010;-88
2021/12/28 10:43:08;;;;;;;34.50;7.35;;;11.50;82.60;;;;;;5052933;28;20025;-85
2021/12/28 10:45:37;;;;;;;37.53;8.80;;;11.40;82.70;;;;;;5052537;28;20033;-82
2021/12/28 10:50:43;;;;;;;36.53;8.35;;;11.50;83.00;;;;;;5389776;22;20054;-73
2021/12/28 10:53:14;;;;;;;43.08;10.05;;;11.50;81.90;;;;;;5009683;28;20540;-75
2021/12/28 10:55:44;;;;;;;35.58;8.43;;;11.60;81.40;;;;;;5013579;28;20711;-74
2021/12/28 10:58:23;;;;;;;38.75;8.93;;;11.50;80.70;;;;;;5019636;28;20046;-74
2021/12/28 11:00:50;;;;;;;47.67;10.00;;;11.50;80.90;;;;;;5012180;28;20036;-73
2021/12/28 11:03:26;;;;;;;40.67;9.25;;;11.60;81.00;;;;;;5020367;28;20490;-74
2021/12/28 11:05:54;;;;;;;41.85;8.88;;;11.60;80.50;;;;;;5014593;28;20053;-76
2021/12/28 11:08:20;;;;;;;36.20;8.45;;;11.60;80.50;;;;;;5019651;28;20798;-73
2021/12/28 11:10:48;;;;;;;41.85;9.75;;;11.50;80.40;;;;;;5011937;28;20128;-73
2021/12/28 11:13:17;;;;;;;38.83;8.45;;;11.60;80.20;;;;;;5020918;28;20494;-72
2021/12/28 11:15:45;;;;;;;30.42;7.25;;;11.70;79.50;;;;;;5037136;28;20037;-73
2021/12/28 11:18:17;;;;;;;28.05;6.78;;;11.80;78.60;;;;;;5016319;28;20034;-74
2021/12/28 11:20:43;;;;;;;32.25;8.40;;;11.60;76.60;;;;;;5015605;28;20547;-74
2021/12/28 11:23:11;;;;;;;36.50;7.53;;;11.60;78.10;;;;;;4994446;28;20412;-73
2021/12/28 11:25:38;;;;;;;36.65;7.15;;;11.60;77.10;;;;;;4991551;28;20046;-72
2021/12/28 11:28:14;;;;;;;36.42;7.68;;;11.50;77.20;;;;;;4994024;28;20168;-73
2021/12/28 11:30:56;;;;;;;32.88;7.90;;;11.60;77.60;;;;;;4988394;28;20394;-73
2021/12/28 11:33:21;;;;;;;27.58;6.82;;;11.50;78.10;;;;;;4992871;28;20108;-74
2021/12/28 11:35:47;;;;;;;30.80;6.57;;;11.40;79.10;;;;;;4991991;28;20470;-74
2021/12/28 11:38:13;;;;;;;42.17;8.05;;;11.20;79.90;;;;;;4988474;28;20038;-73
2021/12/28 11:40:39;;;;;;;29.70;6.18;;;11.20;80.30;;;;;;4991586;28;20027;-73
2021/12/28 11:43:05;;;;;;;32.92;7.82;;;11.20;80.60;;;;;;4991600;28;20077;-74
2021/12/28 11:45:31;;;;;;;38.45;7.53;;;11.50;80.50;;;;;;4993178;28;20066;-74
2021/12/28 11:47:59;;;;;;;30.02;6.15;;;11.50;80.30;;;;;;4988624;28;20038;-73
2021/12/28 11:50:24;;;;;;;33.72;7.63;;;11.40;80.20;;;;;;4988212;28;20100;-73
2021/12/28 11:52:52;;;;;;;42.40;7.82;;;11.50;80.20;;;;;;4992178;28;20050;-74
2021/12/28 11:55:19;;;;;;;34.55;7.28;;;11.60;79.00;;;;;;4987176;28;20460;-74
2021/12/28 11:57:52;;;;;;;36.30;7.47;;;11.60;78.80;;;;;;4991967;28;20038;-73
2021/12/28 12:00:21;;;;;;;29.45;7.28;;;11.60;79.00;;;;;;4987012;28;20173;-74
2021/12/28 12:02:53;;;;;;;36.30;8.07;;;11.60;79.20;;;;;;4986759;28;20031;-73
2021/12/28 12:05:23;;;;;;;37.72;8.90;;;11.50;78.90;;;;;;4994596;28;20045;-74
2021/12/28 12:08:10;;;;;;;36.10;7.68;;;11.50;79.50;;;;;;4984243;28;20493;-73
2021/12/28 12:10:49;;;;;;;31.48;7.63;;;11.50;79.60;;;;;;4978769;28;20058;-76
2021/12/28 12:13:21;;;;;;;33.33;6.22;;;11.40;80.60;;;;;;4988702;28;20420;-75
2021/12/28 12:15:57;;;;;;;23.77;6.40;;;11.00;79.80;;;;;;4975730;28;20042;-73
2021/12/28 12:18:25;;;;;;;28.50;5.68;;;10.80;81.20;;;;;;4989801;28;20068;-74
2021/12/28 12:21:16;;;;;;;36.50;6.85;;;10.70;82.10;;;;;;5007310;28;20058;-73
2021/12/28 12:23:45;;;;;;;33.58;6.32;;;10.60;83.50;;;;;;5006596;28;20048;-72
2021/12/28 12:26:17;;;;;;;28.25;6.35;;;10.50;84.50;;;;;;5007747;28;20042;-73
2021/12/28 12:28:52;;;;;;;33.17;7.07;;;10.30;85.10;;;;;;4999629;28;20042;-72
2021/12/28 12:31:33;;;;;;;28.08;6.75;;;10.10;86.20;;;;;;5001454;28;20024;-74
2021/12/28 12:34:01;;;;;;;29.83;6.45;;;10.10;86.80;;;;;;4999826;28;20030;-73
2021/12/28 12:36:34;;;;;;;39.70;7.22;;;10.10;87.00;;;;;;5012356;28;20124;-73
2021/12/28 12:39:02;;;;;;;40.35;7.93;;;10.00;87.60;;;;;;5005356;28;20088;-73
2021/12/28 12:41:45;;;;;;;38.03;7.93;;;10.00;88.00;;;;;;5019257;28;20037;-74
2021/12/28 12:44:20;;;;;;;35.42;7.80;;;9.90;88.50;;;;;;5007548;28;20074;-73